createdAt,value
2022-12-18T00:00:51.771Z,100542.00
2022-12-18T00:01:51.851Z,100536.00
2022-12-18T00:02:51.935Z,100538.00
2022-12-18T00:03:51.980Z,100532.00
2022-12-18T00:04:51.819Z,100532.00
2022-12-18T00:05:51.838Z,100528.00
2022-12-18T00:06:51.876Z,100533.00
2022-12-18T00:07:51.911Z,100527.00
2022-12-18T00:08:51.915Z,100529.00
2022-12-18T00:09:51.937Z,100530.00
2022-12-18T00:10:51.953Z,100526.00
2022-12-18T00:11:51.963Z,100530.00
2022-12-18T00:12:51.965Z,100530.00
2022-12-18T00:13:51.993Z,100531.00
2022-12-18T00:14:52.027Z,100529.00
2022-12-18T00:15:52.106Z,100530.00
2022-12-18T00:16:52.029Z,100526.00
2022-12-18T00:17:52.046Z,100532.00
2022-12-18T00:18:52.093Z,100536.00
2022-12-18T00:19:52.096Z,100546.00
2022-12-18T00:20:52.109Z,100540.00
2022-12-18T00:21:52.136Z,100543.00
2022-12-18T00:22:52.117Z,100542.00
2022-12-18T00:23:52.111Z,100541.00
2022-12-18T00:24:52.112Z,100539.00
2022-12-18T00:25:52.158Z,100539.00
2022-12-18T00:26:52.169Z,100545.00
2022-12-18T00:27:52.183Z,100547.00
2022-12-18T00:28:52.214Z,100548.00
2022-12-18T00:29:52.238Z,100554.00
2022-12-18T00:30:52.265Z,100556.00
2022-12-18T00:31:52.383Z,100561.00
2022-12-18T00:32:52.285Z,100559.00
2022-12-18T00:33:55.213Z,100563.00
2022-12-18T00:34:52.383Z,100560.00
2022-12-18T00:35:52.343Z,100558.00
2022-12-18T00:36:52.378Z,100556.00
2022-12-18T00:37:52.359Z,100555.00
2022-12-18T00:38:52.376Z,100563.00
2022-12-18T00:39:52.387Z,100562.00
2022-12-18T00:40:52.443Z,100564.00
2022-12-18T00:41:52.427Z,100560.00
2022-12-18T00:42:52.435Z,100563.00
2022-12-18T00:43:52.440Z,100566.00
2022-12-18T00:44:52.669Z,100565.00
2022-12-18T00:45:52.608Z,100562.00
2022-12-18T00:46:52.546Z,100563.00
2022-12-18T00:47:52.500Z,100562.00
2022-12-18T00:48:52.513Z,100564.00
2022-12-18T00:49:52.529Z,100559.00
2022-12-18T00:50:52.587Z,100557.00
2022-12-18T00:51:52.598Z,100557.00
2022-12-18T00:52:52.599Z,100558.00
2022-12-18T00:53:52.624Z,100558.00
2022-12-18T00:54:52.677Z,100562.00
2022-12-18T00:55:52.636Z,100567.00
2022-12-18T00:56:52.678Z,100569.00
2022-12-18T00:57:52.660Z,100570.00
2022-12-18T00:58:52.677Z,100566.00
2022-12-18T00:59:52.702Z,100569.00
2022-12-18T01:00:52.808Z,100571.00
2022-12-18T01:01:52.920Z,100573.00
2022-12-18T01:02:52.884Z,100576.00
2022-12-18T01:03:52.773Z,100580.00
2022-12-18T01:04:52.816Z,100580.00
2022-12-18T01:05:52.821Z,100586.00
2022-12-18T01:06:52.871Z,100583.00
2022-12-18T01:07:52.865Z,100586.00
2022-12-18T01:08:52.884Z,100589.00
2022-12-18T01:09:52.901Z,100586.00
2022-12-18T01:10:52.924Z,100589.00
2022-12-18T01:11:52.939Z,100585.00
2022-12-18T01:12:52.967Z,100579.00
2022-12-18T01:13:52.981Z,100588.00
2022-12-18T01:14:53.023Z,100584.00
2022-12-18T01:15:53.059Z,100595.00
2022-12-18T01:16:53.133Z,100594.00
2022-12-18T01:17:53.034Z,100593.00
2022-12-18T01:18:53.061Z,100594.00
2022-12-18T01:19:53.211Z,100598.00
2022-12-18T01:20:53.079Z,100594.00
2022-12-18T01:21:53.109Z,100596.00
2022-12-18T01:22:53.164Z,100593.00
2022-12-18T01:23:53.176Z,100583.00
2022-12-18T01:24:53.166Z,100591.00
2022-12-18T01:25:53.186Z,100584.00
2022-12-18T01:26:53.228Z,100579.00
2022-12-18T01:27:53.183Z,100582.00
2022-12-18T01:28:53.216Z,100576.00
2022-12-18T01:29:53.238Z,100582.00
2022-12-18T01:30:53.227Z,100578.00
2022-12-18T01:31:53.324Z,100577.00
2022-12-18T01:32:53.251Z,100584.00
2022-12-18T01:33:53.284Z,100584.00
2022-12-18T01:34:53.347Z,100592.00
2022-12-18T01:35:53.300Z,100593.00
2022-12-18T01:36:53.338Z,100593.00
2022-12-18T01:37:53.315Z,100588.00
2022-12-18T01:38:53.336Z,100592.00
2022-12-18T01:39:53.366Z,100596.00
2022-12-18T01:40:53.369Z,100600.00
2022-12-18T01:41:53.404Z,100608.00
2022-12-18T01:42:53.450Z,100602.00
2022-12-18T01:43:53.441Z,100610.00
2022-12-18T01:44:53.438Z,100612.00
2022-12-18T01:45:53.561Z,100609.00
2022-12-18T01:46:53.516Z,100605.00
2022-12-18T01:47:53.469Z,100604.00
2022-12-18T01:48:53.476Z,100601.00
2022-12-18T01:49:53.467Z,100599.00
2022-12-18T01:50:53.471Z,100603.00
2022-12-18T01:51:53.527Z,100599.00
2022-12-18T01:52:53.485Z,100602.00
2022-12-18T01:53:53.508Z,100600.00
2022-12-18T01:54:53.503Z,100596.00
2022-12-18T01:55:53.500Z,100585.00
2022-12-18T01:56:53.514Z,100587.00
2022-12-18T01:57:53.567Z,100585.00
2022-12-18T01:58:53.519Z,100587.00
2022-12-18T01:59:53.534Z,100590.00
2022-12-18T02:00:53.600Z,100588.00
2022-12-18T02:01:53.782Z,100585.00
2022-12-18T02:02:53.708Z,100585.00
2022-12-18T02:03:53.600Z,100584.00
2022-12-18T02:04:53.632Z,100583.00
2022-12-18T02:05:53.649Z,100578.00
2022-12-18T02:06:53.670Z,100581.00
2022-12-18T02:07:53.669Z,100581.00
2022-12-18T02:08:53.684Z,100585.00
2022-12-18T02:09:53.693Z,100582.00
2022-12-18T02:10:53.707Z,100589.00
2022-12-18T02:11:53.722Z,100587.00
2022-12-18T02:12:53.858Z,100585.00
2022-12-18T02:13:53.778Z,100588.00
2022-12-18T02:14:53.813Z,100591.00
2022-12-18T02:15:53.787Z,100593.00
2022-12-18T02:16:53.856Z,100593.00
2022-12-18T02:17:53.822Z,100592.00
2022-12-18T02:18:53.842Z,100589.00
2022-12-18T02:19:53.856Z,100587.00
2022-12-18T02:20:53.886Z,100586.00
2022-12-18T02:21:53.896Z,100586.00
2022-12-18T02:22:53.895Z,100580.00
2022-12-18T02:23:53.927Z,100582.00
2022-12-18T02:24:53.952Z,100587.00
2022-12-18T02:25:53.992Z,100579.00
2022-12-18T02:26:53.938Z,100580.00
2022-12-18T02:27:53.943Z,100583.00
2022-12-18T02:28:54.092Z,100583.00
2022-12-18T02:29:58.172Z,100583.00
2022-12-18T02:30:54.029Z,100580.00
2022-12-18T02:31:53.955Z,100580.00
2022-12-18T02:32:53.967Z,100579.00
2022-12-18T02:33:54.030Z,100574.00
2022-12-18T02:34:54.037Z,100568.00
2022-12-18T02:35:54.058Z,100573.00
2022-12-18T02:36:54.085Z,100573.00
2022-12-18T02:37:54.102Z,100571.00
2022-12-18T02:38:54.098Z,100574.00
2022-12-18T02:39:54.118Z,100580.00
2022-12-18T02:40:54.110Z,100578.00
2022-12-18T02:41:54.161Z,100578.00
2022-12-18T02:42:54.132Z,100577.00
2022-12-18T02:43:54.137Z,100570.00
2022-12-18T02:44:54.273Z,100566.00
2022-12-18T02:45:54.199Z,100570.00
2022-12-18T02:46:54.179Z,100569.00
2022-12-18T02:47:54.204Z,100572.00
2022-12-18T02:48:54.218Z,100579.00
2022-12-18T02:49:54.266Z,100586.00
2022-12-18T02:50:54.270Z,100587.00
2022-12-18T02:51:54.296Z,100590.00
2022-12-18T02:52:54.311Z,100590.00
2022-12-18T02:53:54.359Z,100590.00
2022-12-18T02:54:54.364Z,100590.00
2022-12-18T02:55:54.368Z,100592.00
2022-12-18T02:56:54.386Z,100594.00
2022-12-18T02:57:54.413Z,100599.00
2022-12-18T02:58:54.429Z,100598.00
2022-12-18T02:59:54.440Z,100599.00
2022-12-18T03:00:54.648Z,100599.00
2022-12-18T03:01:54.632Z,100600.00
2022-12-18T03:02:54.636Z,100598.00
2022-12-18T03:03:54.502Z,100593.00
2022-12-18T03:04:54.533Z,100591.00
2022-12-18T03:05:54.557Z,100591.00
2022-12-18T03:06:54.579Z,100592.00
2022-12-18T03:07:54.586Z,100595.00
2022-12-18T03:08:54.600Z,100600.00
2022-12-18T03:09:54.617Z,100595.00
2022-12-18T03:10:54.621Z,100604.00
2022-12-18T03:11:54.689Z,100606.00
2022-12-18T03:12:54.644Z,100612.00
2022-12-18T03:13:54.639Z,100606.00
2022-12-18T03:14:54.659Z,100609.00
2022-12-18T03:15:54.668Z,100607.00
2022-12-18T03:16:54.823Z,100604.00
2022-12-18T03:17:54.710Z,100605.00
2022-12-18T03:18:54.732Z,100603.00
2022-12-18T03:19:54.765Z,100602.00
2022-12-18T03:20:54.768Z,100598.00
2022-12-18T03:21:54.818Z,100611.00
2022-12-18T03:22:54.841Z,100609.00
2022-12-18T03:23:54.851Z,100611.00
2022-12-18T03:24:54.881Z,100612.00
2022-12-18T03:25:54.919Z,100612.00
2022-12-18T03:26:54.876Z,100611.00
2022-12-18T03:27:54.914Z,100610.00
2022-12-18T03:28:54.896Z,100609.00
2022-12-18T03:29:54.920Z,100604.00
2022-12-18T03:30:55.024Z,100601.00
2022-12-18T03:31:54.954Z,100598.00
2022-12-18T03:32:59.968Z,100598.00
2022-12-18T03:33:54.995Z,100598.00
2022-12-18T03:34:54.980Z,100596.00
2022-12-18T03:35:54.999Z,100597.00
2022-12-18T03:36:55.036Z,100605.00
2022-12-18T03:37:55.060Z,100605.00
2022-12-18T03:38:55.071Z,100602.00
2022-12-18T03:39:55.096Z,100606.00
2022-12-18T03:40:55.078Z,100610.00
2022-12-18T03:41:55.111Z,100607.00
2022-12-18T03:42:55.135Z,100607.00
2022-12-18T03:43:55.164Z,100602.00
2022-12-18T03:44:55.194Z,100600.00
2022-12-18T03:45:55.364Z,100607.00
2022-12-18T03:46:55.172Z,100603.00
2022-12-18T03:47:55.188Z,100601.00
2022-12-18T03:48:55.295Z,100606.00
2022-12-18T03:49:55.195Z,100604.00
2022-12-18T03:50:55.199Z,100603.00
2022-12-18T03:51:55.219Z,100600.00
2022-12-18T03:52:55.251Z,100604.00
2022-12-18T03:53:55.301Z,100606.00
2022-12-18T03:54:55.256Z,100608.00
2022-12-18T03:55:55.282Z,100607.00
2022-12-18T03:56:55.301Z,100603.00
2022-12-18T03:57:55.326Z,100613.00
2022-12-18T03:58:55.364Z,100607.00
2022-12-18T03:59:55.573Z,100605.00
2022-12-18T04:00:55.377Z,100605.00
2022-12-18T04:01:55.459Z,100602.00
2022-12-18T04:02:55.392Z,100601.00
2022-12-18T04:03:55.433Z,100607.00
2022-12-18T04:04:55.567Z,100603.00
2022-12-18T04:05:55.423Z,100599.00
2022-12-18T04:06:55.452Z,100600.00
2022-12-18T04:07:55.465Z,100597.00
2022-12-18T04:08:55.462Z,100596.00
2022-12-18T04:09:55.472Z,100598.00
2022-12-18T04:10:55.486Z,100603.00
2022-12-18T04:11:55.523Z,100602.00
2022-12-18T04:12:55.522Z,100600.00
2022-12-18T04:13:55.543Z,100595.00
2022-12-18T04:14:55.559Z,100593.00
2022-12-18T04:15:55.669Z,100593.00
2022-12-18T04:16:55.598Z,100594.00
2022-12-18T04:17:55.623Z,100595.00
2022-12-18T04:18:55.642Z,100600.00
2022-12-18T04:19:55.646Z,100602.00
2022-12-18T04:20:55.792Z,100600.00
2022-12-18T04:21:55.677Z,100606.00
2022-12-18T04:22:55.704Z,100605.00
2022-12-18T04:23:55.676Z,100600.00
2022-12-18T04:24:55.713Z,100605.00
2022-12-18T04:25:55.714Z,100605.00
2022-12-18T04:26:55.722Z,100602.00
2022-12-18T04:27:55.729Z,100605.00
2022-12-18T04:28:55.749Z,100604.00
2022-12-18T04:29:55.778Z,100605.00
2022-12-18T04:30:55.853Z,100605.00
2022-12-18T04:31:55.791Z,100601.00
2022-12-18T04:32:55.799Z,100604.00
2022-12-18T04:33:55.824Z,100606.00
2022-12-18T04:34:55.827Z,100611.00
2022-12-18T04:35:55.866Z,100612.00
2022-12-18T04:36:55.982Z,100615.00
2022-12-18T04:37:55.904Z,100613.00
2022-12-18T04:38:55.869Z,100614.00
2022-12-18T04:39:55.886Z,100615.00
2022-12-18T04:40:55.912Z,100615.00
2022-12-18T04:41:55.907Z,100619.00
2022-12-18T04:42:55.992Z,100615.00
2022-12-18T04:43:55.941Z,100617.00
2022-12-18T04:44:55.943Z,100608.00
2022-12-18T04:45:55.967Z,100617.00
2022-12-18T04:46:55.994Z,100616.00
2022-12-18T04:47:55.961Z,100623.00
2022-12-18T04:48:55.997Z,100627.00
2022-12-18T04:49:56.016Z,100626.00
2022-12-18T04:50:56.054Z,100626.00
2022-12-18T04:51:56.066Z,100632.00
2022-12-18T04:52:56.208Z,100627.00
2022-12-18T04:53:56.117Z,100633.00
2022-12-18T04:54:56.169Z,100636.00
2022-12-18T04:55:56.187Z,100634.00
2022-12-18T04:56:56.157Z,100635.00
2022-12-18T04:57:56.184Z,100629.00
2022-12-18T04:58:56.170Z,100624.00
2022-12-18T04:59:56.169Z,100628.00
2022-12-18T05:00:56.199Z,100632.00
2022-12-18T05:01:56.442Z,100630.00
2022-12-18T05:02:56.298Z,100629.00
2022-12-18T05:03:56.301Z,100627.00
2022-12-18T05:04:56.259Z,100628.00
2022-12-18T05:05:56.262Z,100627.00
2022-12-18T05:06:56.290Z,100629.00
2022-12-18T05:07:56.315Z,100628.00
2022-12-18T05:08:56.451Z,100629.00
2022-12-18T05:09:56.359Z,100630.00
2022-12-18T05:10:57.606Z,100629.00
2022-12-18T05:11:56.388Z,100627.00
2022-12-18T05:12:56.436Z,100623.00
2022-12-18T05:13:56.436Z,100618.00
2022-12-18T05:14:56.458Z,100624.00
2022-12-18T05:15:56.581Z,100624.00
2022-12-18T05:17:00.657Z,100623.00
2022-12-18T05:17:56.510Z,100622.00
2022-12-18T05:18:56.530Z,100618.00
2022-12-18T05:19:56.556Z,100623.00
2022-12-18T05:20:56.593Z,100618.00
2022-12-18T05:21:56.599Z,100625.00
2022-12-18T05:22:56.611Z,100629.00
2022-12-18T05:23:56.646Z,100631.00
2022-12-18T05:25:02.583Z,100633.00
2022-12-18T05:25:56.793Z,100632.00
2022-12-18T05:26:56.656Z,100638.00
2022-12-18T05:27:56.674Z,100640.00
2022-12-18T05:28:56.678Z,100642.00
2022-12-18T05:29:56.695Z,100634.00
2022-12-18T05:30:56.786Z,100634.00
2022-12-18T05:31:56.771Z,100634.00
2022-12-18T05:32:56.741Z,100630.00
2022-12-18T05:33:56.754Z,100629.00
2022-12-18T05:34:56.796Z,100634.00
2022-12-18T05:35:56.769Z,100633.00
2022-12-18T05:36:56.798Z,100636.00
2022-12-18T05:37:56.806Z,100637.00
2022-12-18T05:38:56.842Z,100640.00
2022-12-18T05:39:56.860Z,100648.00
2022-12-18T05:40:56.880Z,100647.00
2022-12-18T05:41:57.028Z,100652.00
2022-12-18T05:42:56.931Z,100652.00
2022-12-18T05:43:56.952Z,100654.00
2022-12-18T05:44:56.971Z,100655.00
2022-12-18T05:45:57.050Z,100658.00
2022-12-18T05:46:57.076Z,100654.00
2022-12-18T05:47:57.000Z,100652.00
2022-12-18T05:48:57.028Z,100652.00
2022-12-18T05:49:57.052Z,100652.00
2022-12-18T05:50:57.079Z,100647.00
2022-12-18T05:51:57.082Z,100646.00
2022-12-18T05:52:57.109Z,100644.00
2022-12-18T05:53:57.137Z,100645.00
2022-12-18T05:54:57.128Z,100648.00
2022-12-18T05:55:57.172Z,100653.00
2022-12-18T05:56:57.179Z,100657.00
2022-12-18T05:57:57.313Z,100659.00
2022-12-18T05:58:57.228Z,100661.00
2022-12-18T05:59:57.235Z,100658.00
2022-12-18T06:00:57.300Z,100657.00
2022-12-18T06:01:57.467Z,100657.00
2022-12-18T06:02:57.421Z,100657.00
2022-12-18T06:03:57.380Z,100663.00
2022-12-18T06:04:57.308Z,100666.00
2022-12-18T06:05:57.336Z,100671.00
2022-12-18T06:06:57.352Z,100668.00
2022-12-18T06:07:57.376Z,100669.00
2022-12-18T06:08:57.433Z,100670.00
2022-12-18T06:09:57.407Z,100672.00
2022-12-18T06:10:57.427Z,100677.00
2022-12-18T06:11:57.451Z,100673.00
2022-12-18T06:12:57.474Z,100679.00
2022-12-18T06:13:58.912Z,100674.00
2022-12-18T06:14:57.470Z,100680.00
2022-12-18T06:15:57.545Z,100682.00
2022-12-18T06:16:57.486Z,100684.00
2022-12-18T06:17:57.502Z,100687.00
2022-12-18T06:18:57.514Z,100682.00
2022-12-18T06:19:57.533Z,100686.00
2022-12-18T06:20:57.554Z,100686.00
2022-12-18T06:21:57.576Z,100687.00
2022-12-18T06:22:57.603Z,100687.00
2022-12-18T06:23:57.646Z,100693.00
2022-12-18T06:24:57.649Z,100690.00
2022-12-18T06:25:57.689Z,100692.00
2022-12-18T06:26:57.687Z,100693.00
2022-12-18T06:27:57.704Z,100689.00
2022-12-18T06:28:57.749Z,100689.00
2022-12-18T06:29:57.858Z,100689.00
2022-12-18T06:30:57.770Z,100682.00
2022-12-18T06:31:57.851Z,100685.00
2022-12-18T06:32:57.813Z,100686.00
2022-12-18T06:33:57.840Z,100684.00
2022-12-18T06:34:57.851Z,100685.00
2022-12-18T06:36:01.099Z,100686.00
2022-12-18T06:36:57.891Z,100687.00
2022-12-18T06:37:57.898Z,100688.00
2022-12-18T06:38:57.950Z,100687.00
2022-12-18T06:39:57.910Z,100686.00
2022-12-18T06:40:57.948Z,100681.00
2022-12-18T06:41:57.979Z,100682.00
2022-12-18T06:42:57.955Z,100676.00
2022-12-18T06:43:59.880Z,100686.00
2022-12-18T06:44:57.985Z,100684.00
2022-12-18T06:45:58.183Z,100682.00
2022-12-18T06:46:58.009Z,100688.00
2022-12-18T06:47:58.038Z,100687.00
2022-12-18T06:48:58.047Z,100686.00
2022-12-18T06:49:58.083Z,100689.00
2022-12-18T06:50:58.084Z,100689.00
2022-12-18T06:51:58.107Z,100688.00
2022-12-18T06:52:58.068Z,100687.00
2022-12-18T06:53:58.093Z,100685.00
2022-12-18T06:54:58.096Z,100683.00
2022-12-18T06:55:58.126Z,100687.00
2022-12-18T06:56:58.156Z,100684.00
2022-12-18T06:57:58.159Z,100682.00
2022-12-18T06:58:58.185Z,100681.00
2022-12-18T06:59:58.196Z,100683.00
2022-12-18T07:00:58.251Z,100687.00
2022-12-18T07:01:58.496Z,100684.00
2022-12-18T07:02:58.295Z,100682.00
2022-12-18T07:03:58.231Z,100682.00
2022-12-18T07:04:58.256Z,100688.00
2022-12-18T07:05:58.278Z,100688.00
2022-12-18T07:06:58.338Z,100694.00
2022-12-18T07:07:58.293Z,100690.00
2022-12-18T07:08:58.314Z,100695.00
2022-12-18T07:09:58.328Z,100694.00
2022-12-18T07:10:58.353Z,100697.00
2022-12-18T07:11:58.394Z,100696.00
2022-12-18T07:12:58.404Z,100702.00
2022-12-18T07:13:58.449Z,100700.00
2022-12-18T07:14:58.405Z,100696.00
2022-12-18T07:15:58.544Z,100698.00
2022-12-18T07:16:58.490Z,100700.00
2022-12-18T07:18:04.373Z,100702.00
2022-12-18T07:18:58.545Z,100701.00
2022-12-18T07:19:58.404Z,100698.00
2022-12-18T07:20:58.438Z,100699.00
2022-12-18T07:21:58.488Z,100697.00
2022-12-18T07:22:58.446Z,100697.00
2022-12-18T07:23:58.480Z,100698.00
2022-12-18T07:24:58.451Z,100694.00
2022-12-18T07:25:58.491Z,100693.00
2022-12-18T07:26:58.484Z,100698.00
2022-12-18T07:27:58.498Z,100696.00
2022-12-18T07:28:58.639Z,100694.00
2022-12-18T07:29:58.539Z,100698.00
2022-12-18T07:30:58.546Z,100703.00
2022-12-18T07:31:58.721Z,100702.00
2022-12-18T07:32:58.570Z,100699.00
2022-12-18T07:33:58.572Z,100699.00
2022-12-18T07:34:58.757Z,100703.00
2022-12-18T07:35:58.851Z,100706.00
2022-12-18T07:36:58.621Z,100708.00
2022-12-18T07:37:58.625Z,100709.00
2022-12-18T07:38:58.672Z,100713.00
2022-12-18T07:39:58.679Z,100715.00
2022-12-18T07:40:58.758Z,100720.00
2022-12-18T07:41:58.706Z,100720.00
2022-12-18T07:42:58.748Z,100723.00
2022-12-18T07:43:58.721Z,100727.00
2022-12-18T07:44:58.745Z,100721.00
2022-12-18T07:45:58.906Z,100724.00
2022-12-18T07:46:58.776Z,100727.00
2022-12-18T07:47:58.785Z,100727.00
2022-12-18T07:48:58.820Z,100729.00
2022-12-18T07:49:58.819Z,100728.00
2022-12-18T07:50:58.972Z,100728.00
2022-12-18T07:51:58.831Z,100734.00
2022-12-18T07:52:58.871Z,100734.00
2022-12-18T07:53:58.908Z,100727.00
2022-12-18T07:54:58.901Z,100729.00
2022-12-18T07:56:25.576Z,100724.00
2022-12-18T07:56:58.878Z,100721.00
2022-12-18T07:58:01.137Z,100719.00
2022-12-18T07:58:58.912Z,100723.00
2022-12-18T07:59:58.917Z,100721.00
2022-12-18T08:00:58.956Z,100720.00
2022-12-18T08:01:59.175Z,100719.00
2022-12-18T08:02:59.156Z,100722.00
2022-12-18T08:03:58.992Z,100718.00
2022-12-18T08:04:59.026Z,100722.00
2022-12-18T08:05:59.041Z,100720.00
2022-12-18T08:06:59.177Z,100717.00
2022-12-18T08:07:59.095Z,100719.00
2022-12-18T08:08:59.114Z,100720.00
2022-12-18T08:09:59.133Z,100721.00
2022-12-18T08:10:59.177Z,100726.00
2022-12-18T08:11:59.181Z,100722.00
2022-12-18T08:13:04.664Z,100727.00
2022-12-18T08:13:59.216Z,100725.00
2022-12-18T08:14:59.240Z,100726.00
2022-12-18T08:15:59.250Z,100724.00
2022-12-18T08:16:59.350Z,100725.00
2022-12-18T08:17:59.279Z,100727.00
2022-12-18T08:18:59.354Z,100730.00
2022-12-18T08:19:59.307Z,100732.00
2022-12-18T08:20:59.345Z,100735.00
2022-12-18T08:21:59.326Z,100737.00
2022-12-18T08:22:59.433Z,100738.00
2022-12-18T08:23:59.359Z,100738.00
2022-12-18T08:24:59.344Z,100740.00
2022-12-18T08:25:59.380Z,100741.00
2022-12-18T08:27:27.782Z,100737.00
2022-12-18T08:27:59.451Z,100731.00
2022-12-18T08:28:59.420Z,100739.00
2022-12-18T08:29:59.448Z,100743.00
2022-12-18T08:30:59.486Z,100745.00
2022-12-18T08:31:59.463Z,100744.00
2022-12-18T08:32:59.437Z,100742.00
2022-12-18T08:33:59.535Z,100738.00
2022-12-18T08:34:59.493Z,100738.00
2022-12-18T08:35:59.524Z,100741.00
2022-12-18T08:36:59.522Z,100738.00
2022-12-18T08:37:59.510Z,100735.00
2022-12-18T08:38:59.668Z,100735.00
2022-12-18T08:39:59.567Z,100730.00
2022-12-18T08:40:59.586Z,100730.00
2022-12-18T08:41:59.675Z,100728.00
2022-12-18T08:42:59.648Z,100725.00
2022-12-18T08:43:59.624Z,100722.00
2022-12-18T08:44:59.654Z,100717.00
2022-12-18T08:45:59.746Z,100718.00
2022-12-18T08:46:59.713Z,100719.00
2022-12-18T08:47:59.692Z,100720.00
2022-12-18T08:48:59.692Z,100714.00
2022-12-18T08:49:59.666Z,100723.00
2022-12-18T08:50:59.709Z,100722.00
2022-12-18T08:51:59.750Z,100723.00
2022-12-18T08:52:59.737Z,100721.00
2022-12-18T08:53:59.711Z,100721.00
2022-12-18T08:54:59.887Z,100718.00
2022-12-18T08:55:59.755Z,100721.00
2022-12-18T08:56:59.788Z,100718.00
2022-12-18T08:57:59.810Z,100714.00
2022-12-18T08:58:59.804Z,100716.00
2022-12-18T08:59:59.800Z,100716.00
2022-12-18T09:00:59.867Z,100718.00
2022-12-18T09:01:59.995Z,100712.00
2022-12-18T09:02:59.892Z,100714.00
2022-12-18T09:03:59.864Z,100713.00
2022-12-18T09:05:00.038Z,100716.00
2022-12-18T09:05:59.852Z,100711.00
2022-12-18T09:06:59.891Z,100714.00
2022-12-18T09:07:59.922Z,100719.00
2022-12-18T09:08:59.950Z,100718.00
2022-12-18T09:09:59.937Z,100715.00
2022-12-18T09:11:00.071Z,100718.00
2022-12-18T09:11:59.953Z,100708.00
2022-12-18T09:12:59.971Z,100717.00
2022-12-18T09:13:59.960Z,100713.00
2022-12-18T09:14:59.964Z,100710.00
2022-12-18T09:15:59.944Z,100710.00
2022-12-18T09:17:00.003Z,100708.00
2022-12-18T09:17:59.960Z,100705.00
2022-12-18T09:19:00.035Z,100710.00
2022-12-18T09:20:00.015Z,100708.00
2022-12-18T09:21:00.032Z,100708.00
2022-12-18T09:22:00.038Z,100709.00
2022-12-18T09:23:00.056Z,100707.00
2022-12-18T09:24:00.084Z,100705.00
2022-12-18T09:25:00.065Z,100708.00
2022-12-18T09:26:00.130Z,100707.00
2022-12-18T09:27:00.220Z,100704.00
2022-12-18T09:28:00.101Z,100706.00
2022-12-18T09:29:00.141Z,100705.00
2022-12-18T09:30:00.161Z,100710.00
2022-12-18T09:31:00.324Z,100710.00
2022-12-18T09:32:00.202Z,100709.00
2022-12-18T09:33:00.188Z,100710.00
2022-12-18T09:34:00.193Z,100704.00
2022-12-18T09:35:00.177Z,100701.00
2022-12-18T09:36:00.206Z,100700.00
2022-12-18T09:37:00.218Z,100699.00
2022-12-18T09:38:00.204Z,100693.00
2022-12-18T09:39:04.951Z,100696.00
2022-12-18T09:40:00.227Z,100685.00
2022-12-18T09:41:00.261Z,100678.00
2022-12-18T09:42:00.293Z,100676.00
2022-12-18T09:43:00.427Z,100678.00
2022-12-18T09:44:00.344Z,100675.00
2022-12-18T09:45:00.427Z,100677.00
2022-12-18T09:46:00.507Z,100676.00
2022-12-18T09:47:00.405Z,100675.00
2022-12-18T09:48:00.404Z,100672.00
2022-12-18T09:49:00.376Z,100673.00
2022-12-18T09:50:00.378Z,100672.00
2022-12-18T09:51:00.415Z,100676.00
2022-12-18T09:52:00.399Z,100673.00
2022-12-18T09:53:00.407Z,100674.00
2022-12-18T09:54:00.464Z,100671.00
2022-12-18T09:55:00.454Z,100670.00
2022-12-18T09:56:00.434Z,100672.00
2022-12-18T09:57:00.452Z,100668.00
2022-12-18T09:58:00.459Z,100676.00
2022-12-18T09:59:00.696Z,100672.00
2022-12-18T10:00:00.471Z,100678.00
2022-12-18T10:01:00.509Z,100681.00
2022-12-18T10:02:00.725Z,100683.00
2022-12-18T10:03:00.761Z,100682.00
2022-12-18T10:04:00.669Z,100680.00
2022-12-18T10:05:00.569Z,100682.00
2022-12-18T10:06:00.566Z,100678.00
2022-12-18T10:07:05.639Z,100683.00
2022-12-18T10:08:00.564Z,100681.00
2022-12-18T10:09:00.545Z,100688.00
2022-12-18T10:10:00.533Z,100683.00
2022-12-18T10:11:00.545Z,100691.00
2022-12-18T10:12:00.583Z,100689.00
2022-12-18T10:13:04.489Z,100691.00
2022-12-18T10:14:00.558Z,100694.00
2022-12-18T10:15:00.663Z,100687.00
2022-12-18T10:16:00.671Z,100692.00
2022-12-18T10:17:00.554Z,100688.00
2022-12-18T10:18:00.581Z,100687.00
2022-12-18T10:19:00.618Z,100689.00
2022-12-18T10:20:00.668Z,100689.00
2022-12-18T10:21:00.650Z,100684.00
2022-12-18T10:22:00.666Z,100684.00
2022-12-18T10:23:00.696Z,100682.00
2022-12-18T10:24:00.717Z,100682.00
2022-12-18T10:25:00.746Z,100684.00
2022-12-18T10:26:00.784Z,100686.00
2022-12-18T10:27:00.816Z,100682.00
2022-12-18T10:28:00.804Z,100683.00
2022-12-18T10:29:05.498Z,100676.00
2022-12-18T10:30:00.847Z,100675.00
2022-12-18T10:31:01.036Z,100672.00
2022-12-18T10:32:00.919Z,100670.00
2022-12-18T10:33:00.890Z,100669.00
2022-12-18T10:34:00.911Z,100665.00
2022-12-18T10:35:01.280Z,100661.00
2022-12-18T10:36:00.978Z,100662.00
2022-12-18T10:37:01.003Z,100664.00
2022-12-18T10:38:01.003Z,100665.00
2022-12-18T10:39:00.980Z,100661.00
2022-12-18T10:40:00.999Z,100654.00
2022-12-18T10:41:00.996Z,100650.00
2022-12-18T10:42:00.981Z,100652.00
2022-12-18T10:43:01.027Z,100651.00
2022-12-18T10:44:01.052Z,100648.00
2022-12-18T10:45:01.098Z,100646.00
2022-12-18T10:46:01.169Z,100646.00
2022-12-18T10:47:01.213Z,100651.00
2022-12-18T10:48:01.087Z,100652.00
2022-12-18T10:49:01.116Z,100652.00
2022-12-18T10:50:01.185Z,100653.00
2022-12-18T10:51:10.854Z,100655.00
2022-12-18T10:52:01.152Z,100655.00
2022-12-18T10:53:01.211Z,100652.00
2022-12-18T10:54:01.179Z,100658.00
2022-12-18T10:55:01.178Z,100662.00
2022-12-18T10:56:01.171Z,100663.00
2022-12-18T10:57:01.210Z,100661.00
2022-12-18T10:58:01.225Z,100659.00
2022-12-18T10:59:01.257Z,100661.00
2022-12-18T11:00:01.278Z,100667.00
2022-12-18T11:01:01.314Z,100665.00
2022-12-18T11:02:01.461Z,100664.00
2022-12-18T11:03:01.674Z,100660.00
2022-12-18T11:04:02.594Z,100661.00
2022-12-18T11:05:01.360Z,100659.00
2022-12-18T11:06:01.348Z,100659.00
2022-12-18T11:07:01.372Z,100657.00
2022-12-18T11:08:01.384Z,100655.00
2022-12-18T11:09:01.434Z,100656.00
2022-12-18T11:10:01.410Z,100656.00
2022-12-18T11:11:01.432Z,100656.00
2022-12-18T11:12:01.462Z,100652.00
2022-12-18T11:13:01.512Z,100652.00
2022-12-18T11:14:01.507Z,100647.00
2022-12-18T11:15:01.521Z,100644.00
2022-12-18T11:16:01.637Z,100635.00
2022-12-18T11:18:01.561Z,100631.00
2022-12-18T11:19:01.688Z,100620.00
2022-12-18T11:20:01.557Z,100621.00
2022-12-18T11:21:01.618Z,100621.00
2022-12-18T11:22:01.588Z,100622.00
2022-12-18T11:23:01.595Z,100617.00
2022-12-18T11:24:01.617Z,100619.00
2022-12-18T11:25:30.991Z,100613.00
2022-12-18T11:26:01.663Z,100609.00